sensor_id;sensor_type;location;lat;lon;timestamp;pressure;altitude;pressure_sealevel;temperature;humidity
35045;BME280;21231;48.394;34.964;2023-07-20T00:01:01;99609.66;;;17.73;100.00
35045;BME280;21231;48.394;34.964;2023-07-20T00:03:47;99617.50;;;17.73;100.00
35045;BME280;21231;48.394;34.964;2023-07-20T00:06:40;99623.66;;;17.76;100.00
35045;BME280;21231;48.394;34.964;2023-07-20T00:09:27;99616.75;;;17.78;100.00
35045;BME280;21231;48.394;34.964;2023-07-20T00:12:13;99615.84;;;17.76;100.00
35045;BME280;21231;48.394;34.964;2023-07-20T00:15:00;99624.72;;;17.88;100.00
35045;BME280;21231;48.394;34.964;2023-07-20T00:17:46;99627.25;;;17.83;100.00
35045;BME280;21231;48.394;34.964;2023-07-20T00:20:33;99630.84;;;17.90;100.00
35045;BME280;21231;48.394;34.964;2023-07-20T00:23:19;99624.72;;;17.88;100.00
35045;BME280;21231;48.394;34.964;2023-07-20T00:26:08;99623.91;;;17.90;100.00
35045;BME280;21231;48.394;34.964;2023-07-20T00:28:54;99628.19;;;17.87;100.00
35045;BME280;21231;48.394;34.964;2023-07-20T00:31:40;99631.59;;;17.83;100.00
35045;BME280;21231;48.394;34.964;2023-07-20T00:34:26;99628.94;;;17.79;100.00
35045;BME280;21231;48.394;34.964;2023-07-20T00:37:12;99612.59;;;17.90;100.00
35045;BME280;21231;48.394;34.964;2023-07-20T00:39:59;99610.09;;;17.96;100.00
35045;BME280;21231;48.394;34.964;2023-07-20T00:42:45;99602.28;;;17.96;100.00
35045;BME280;21231;48.394;34.964;2023-07-20T00:45:31;99612.81;;;18.04;100.00
35045;BME280;21231;48.394;34.964;2023-07-20T00:48:18;99598.59;;;17.85;100.00
35045;BME280;21231;48.394;34.964;2023-07-20T00:51:05;99594.72;;;17.61;100.00
35045;BME280;21231;48.394;34.964;2023-07-20T00:53:52;99592.72;;;17.47;100.00
35045;BME280;21231;48.394;34.964;2023-07-20T00:56:39;99583.28;;;17.54;100.00
35045;BME280;21231;48.394;34.964;2023-07-20T00:59:25;99588.41;;;17.49;100.00
35045;BME280;21231;48.394;34.964;2023-07-20T01:02:11;99584.19;;;17.56;100.00
35045;BME280;21231;48.394;34.964;2023-07-20T01:04:58;99595.44;;;17.53;100.00
35045;BME280;21231;48.394;34.964;2023-07-20T01:10:44;99588.00;;;17.27;100.00
35045;BME280;21231;48.394;34.964;2023-07-20T01:13:33;99590.16;;;17.04;100.00
35045;BME280;21231;48.394;34.964;2023-07-20T01:16:19;99599.59;;;16.99;100.00
35045;BME280;21231;48.394;34.964;2023-07-20T01:19:06;99597.81;;;16.96;100.00
35045;BME280;21231;48.394;34.964;2023-07-20T01:25:14;99593.66;;;17.05;100.00
35045;BME280;21231;48.394;34.964;2023-07-20T01:31:28;99602.84;;;16.87;100.00
35045;BME280;21231;48.394;34.964;2023-07-20T01:34:17;99607.56;;;16.67;100.00
35045;BME280;21231;48.394;34.964;2023-07-20T01:37:06;99606.56;;;16.60;100.00
35045;BME280;21231;48.394;34.964;2023-07-20T01:39:52;99599.81;;;16.68;100.00
35045;BME280;21231;48.394;34.964;2023-07-20T01:42:45;99609.59;;;16.79;100.00
35045;BME280;21231;48.394;34.964;2023-07-20T01:45:32;99605.94;;;16.70;100.00
35045;BME280;21231;48.394;34.964;2023-07-20T01:48:19;99610.41;;;16.77;100.00
35045;BME280;21231;48.394;34.964;2023-07-20T01:51:05;99605.47;;;16.90;100.00
35045;BME280;21231;48.394;34.964;2023-07-20T01:53:52;99603.72;;;16.89;100.00
35045;BME280;21231;48.394;34.964;2023-07-20T01:56:38;99600.41;;;16.96;100.00
35045;BME280;21231;48.394;34.964;2023-07-20T01:59:24;99604.28;;;17.15;100.00
35045;BME280;21231;48.394;34.964;2023-07-20T02:02:11;99597.75;;;17.36;100.00
35045;BME280;21231;48.394;34.964;2023-07-20T02:04:57;99597.63;;;17.32;100.00
35045;BME280;21231;48.394;34.964;2023-07-20T02:07:44;99600.88;;;17.20;100.00
35045;BME280;21231;48.394;34.964;2023-07-20T02:10:30;99606.84;;;17.14;100.00
35045;BME280;21231;48.394;34.964;2023-07-20T02:13:17;99611.91;;;17.08;100.00
35045;BME280;21231;48.394;34.964;2023-07-20T02:16:03;99613.75;;;17.13;100.00
35045;BME280;21231;48.394;34.964;2023-07-20T02:18:49;99622.47;;;17.14;100.00
35045;BME280;21231;48.394;34.964;2023-07-20T02:21:35;99615.50;;;17.14;100.00
35045;BME280;21231;48.394;34.964;2023-07-20T02:24:21;99609.59;;;17.22;100.00
35045;BME280;21231;48.394;34.964;2023-07-20T02:27:08;99604.72;;;17.39;100.00
35045;BME280;21231;48.394;34.964;2023-07-20T02:29:54;99606.78;;;17.57;100.00
35045;BME280;21231;48.394;34.964;2023-07-20T02:32:40;99607.66;;;17.58;100.00
35045;BME280;21231;48.394;34.964;2023-07-20T02:35:27;99606.75;;;17.55;100.00
35045;BME280;21231;48.394;34.964;2023-07-20T02:38:13;99599.72;;;17.50;100.00
35045;BME280;21231;48.394;34.964;2023-07-20T02:40:59;99605.19;;;17.65;100.00
35045;BME280;21231;48.394;34.964;2023-07-20T02:43:45;99604.31;;;17.63;100.00
35045;BME280;21231;48.394;34.964;2023-07-20T02:46:31;99607.03;;;17.71;100.00
35045;BME280;21231;48.394;34.964;2023-07-20T02:49:18;99606.06;;;17.66;100.00
35045;BME280;21231;48.394;34.964;2023-07-20T02:52:05;99598.19;;;17.63;100.00
35045;BME280;21231;48.394;34.964;2023-07-20T02:54:51;99602.84;;;17.78;100.00
35045;BME280;21231;48.394;34.964;2023-07-20T02:57:38;99602.22;;;17.93;100.00
35045;BME280;21231;48.394;34.964;2023-07-20T03:00:24;99612.16;;;18.16;100.00
35045;BME280;21231;48.394;34.964;2023-07-20T03:03:10;99609.72;;;18.28;100.00
35045;BME280;21231;48.394;34.964;2023-07-20T03:05:57;99617.53;;;18.25;100.00
35045;BME280;21231;48.394;34.964;2023-07-20T03:08:43;99605.34;;;18.26;100.00
35045;BME280;21231;48.394;34.964;2023-07-20T03:11:32;99607.44;;;18.50;100.00
35045;BME280;21231;48.394;34.964;2023-07-20T03:14:18;99601.88;;;18.87;100.00
35045;BME280;21231;48.394;34.964;2023-07-20T03:17:05;99606.81;;;19.36;100.00
35045;BME280;21231;48.394;34.964;2023-07-20T03:19:51;99596.09;;;19.95;100.00
35045;BME280;21231;48.394;34.964;2023-07-20T03:22:37;99601.03;;;20.84;100.00
35045;BME280;21231;48.394;34.964;2023-07-20T03:25:24;99591.31;;;20.62;100.00
35045;BME280;21231;48.394;34.964;2023-07-20T03:28:13;99589.66;;;20.83;100.00
35045;BME280;21231;48.394;34.964;2023-07-20T03:31:00;99590.75;;;21.43;100.00
35045;BME280;21231;48.394;34.964;2023-07-20T03:33:48;99602.22;;;21.79;100.00
35045;BME280;21231;48.394;34.964;2023-07-20T03:36:36;99601.34;;;21.83;100.00
35045;BME280;21231;48.394;34.964;2023-07-20T03:39:22;99611.81;;;22.33;100.00
35045;BME280;21231;48.394;34.964;2023-07-20T03:42:09;99604.78;;;22.71;100.00
35045;BME280;21231;48.394;34.964;2023-07-20T03:44:55;99612.44;;;23.28;100.00
35045;BME280;21231;48.394;34.964;2023-07-20T03:47:42;99609.97;;;22.92;100.00
35045;BME280;21231;48.394;34.964;2023-07-20T03:50:30;99614.47;;;22.13;100.00
35045;BME280;21231;48.394;34.964;2023-07-20T03:53:17;99628.44;;;22.18;100.00
35045;BME280;21231;48.394;34.964;2023-07-20T03:56:03;99625.78;;;21.70;100.00
35045;BME280;21231;48.394;34.964;2023-07-20T03:58:50;99621.38;;;21.50;100.00
35045;BME280;21231;48.394;34.964;2023-07-20T04:01:36;99609.97;;;21.34;100.00
35045;BME280;21231;48.394;34.964;2023-07-20T04:04:23;99626.63;;;21.60;100.00
35045;BME280;21231;48.394;34.964;2023-07-20T04:07:09;99621.41;;;22.61;100.00
35045;BME280;21231;48.394;34.964;2023-07-20T04:09:55;99609.13;;;22.79;100.00
35045;BME280;21231;48.394;34.964;2023-07-20T04:12:41;99623.09;;;22.93;100.00
35045;BME280;21231;48.394;34.964;2023-07-20T04:15:27;99628.97;;;23.50;100.00
35045;BME280;21231;48.394;34.964;2023-07-20T04:18:13;99631.00;;;22.95;100.00
35045;BME280;21231;48.394;34.964;2023-07-20T04:20:59;99628.47;;;22.28;100.00
35045;BME280;21231;48.394;34.964;2023-07-20T04:23:45;99628.44;;;21.87;100.00
35045;BME280;21231;48.394;34.964;2023-07-20T04:26:32;99627.50;;;21.65;100.00
35045;BME280;21231;48.394;34.964;2023-07-20T04:29:18;99628.41;;;21.65;100.00
35045;BME280;21231;48.394;34.964;2023-07-20T04:32:05;99624.88;;;21.55;100.00
35045;BME280;21231;48.394;34.964;2023-07-20T04:34:51;99628.38;;;21.64;100.00
35045;BME280;21231;48.394;34.964;2023-07-20T04:37:38;99633.72;;;21.90;100.00
35045;BME280;21231;48.394;34.964;2023-07-20T04:40:35;99637.22;;;22.20;100.00
35045;BME280;21231;48.394;34.964;2023-07-20T04:43:22;99637.09;;;23.02;100.00
35045;BME280;21231;48.394;34.964;2023-07-20T04:46:12;99654.47;;;23.31;100.00
35045;BME280;21231;48.394;34.964;2023-07-20T04:48:59;99657.22;;;22.96;100.00
35045;BME280;21231;48.394;34.964;2023-07-20T04:51:47;99654.66;;;22.78;100.00
35045;BME280;21231;48.394;34.964;2023-07-20T04:54:35;99659.06;;;22.76;100.00
35045;BME280;21231;48.394;34.964;2023-07-20T04:57:23;99646.75;;;22.92;100.00
35045;BME280;21231;48.394;34.964;2023-07-20T05:00:10;99640.53;;;23.13;100.00
35045;BME280;21231;48.394;34.964;2023-07-20T05:02:59;99640.47;;;23.29;100.00
35045;BME280;21231;48.394;34.964;2023-07-20T05:05:49;99632.69;;;23.00;100.00
35045;BME280;21231;48.394;34.964;2023-07-20T05:08:36;99624.03;;;22.77;100.00
35045;BME280;21231;48.394;34.964;2023-07-20T05:11:22;99632.81;;;22.54;100.00
35045;BME280;21231;48.394;34.964;2023-07-20T05:14:09;99625.78;;;22.53;100.00
35045;BME280;21231;48.394;34.964;2023-07-20T05:16:56;99637.19;;;22.67;100.00
35045;BME280;21231;48.394;34.964;2023-07-20T05:19:43;99629.25;;;22.84;100.00
35045;BME280;21231;48.394;34.964;2023-07-20T05:22:29;99635.28;;;23.11;100.00
35045;BME280;21231;48.394;34.964;2023-07-20T05:25:15;99623.88;;;23.23;100.00
35045;BME280;21231;48.394;34.964;2023-07-20T05:28:04;99615.88;;;23.42;100.00
35045;BME280;21231;48.394;34.964;2023-07-20T05:30:51;99630.69;;;23.62;100.00
35045;BME280;21231;48.394;34.964;2023-07-20T05:33:40;99629.84;;;23.50;100.00
35045;BME280;21231;48.394;34.964;2023-07-20T05:36:26;99628.28;;;23.15;100.00
35045;BME280;21231;48.394;34.964;2023-07-20T05:39:12;99622.13;;;23.13;100.00
35045;BME280;21231;48.394;34.964;2023-07-20T05:41:58;99633.56;;;23.03;100.00
35045;BME280;21231;48.394;34.964;2023-07-20T05:44:44;99639.69;;;23.05;100.00
35045;BME280;21231;48.394;34.964;2023-07-20T05:47:31;99636.97;;;23.28;100.00
35045;BME280;21231;48.394;34.964;2023-07-20T05:50:18;99622.88;;;23.43;100.00
35045;BME280;21231;48.394;34.964;2023-07-20T05:53:04;99631.66;;;23.42;100.00
35045;BME280;21231;48.394;34.964;2023-07-20T05:55:53;99629.81;;;23.57;100.00
35045;BME280;21231;48.394;34.964;2023-07-20T05:58:39;99631.47;;;23.72;100.00
35045;BME280;21231;48.394;34.964;2023-07-20T06:01:25;99621.75;;;23.85;100.00
35045;BME280;21231;48.394;34.964;2023-07-20T06:04:14;99610.25;;;23.97;100.00
35045;BME280;21231;48.394;34.964;2023-07-20T06:07:01;99612.91;;;23.94;100.00
35045;BME280;21231;48.394;34.964;2023-07-20T06:09:47;99607.41;;;24.25;100.00
35045;BME280;21231;48.394;34.964;2023-07-20T06:12:34;99603.81;;;24.37;100.00
35045;BME280;21231;48.394;34.964;2023-07-20T06:15:33;99599.91;;;24.74;100.00
35045;BME280;21231;48.394;34.964;2023-07-20T06:18:23;99587.50;;;24.82;100.00
35045;BME280;21231;48.394;34.964;2023-07-20T06:21:09;99578.28;;;24.42;100.00
35045;BME280;21231;48.394;34.964;2023-07-20T06:23:55;99579.63;;;24.79;100.00
35045;BME280;21231;48.394;34.964;2023-07-20T06:26:41;99577.16;;;24.65;100.00
35045;BME280;21231;48.394;34.964;2023-07-20T06:29:27;99573.94;;;24.41;100.00
35045;BME280;21231;48.394;34.964;2023-07-20T06:32:13;99567.19;;;24.07;100.00
35045;BME280;21231;48.394;34.964;2023-07-20T06:35:00;99571.56;;;24.10;100.00
35045;BME280;21231;48.394;34.964;2023-07-20T06:37:46;99584.66;;;24.16;100.00
35045;BME280;21231;48.394;34.964;2023-07-20T06:40:33;99581.94;;;24.22;100.00
35045;BME280;21231;48.394;34.964;2023-07-20T06:43:19;99582.84;;;24.21;100.00
35045;BME280;21231;48.394;34.964;2023-07-20T06:46:08;99599.59;;;24.14;100.00
35045;BME280;21231;48.394;34.964;2023-07-20T06:48:54;99595.47;;;23.80;100.00
35045;BME280;21231;48.394;34.964;2023-07-20T06:51:43;99591.25;;;23.62;100.00
35045;BME280;21231;48.394;34.964;2023-07-20T06:54:30;99600.03;;;23.58;100.00
35045;BME280;21231;48.394;34.964;2023-07-20T06:57:20;99605.31;;;23.55;100.00
35045;BME280;21231;48.394;34.964;2023-07-20T07:00:07;99600.06;;;23.53;100.00
35045;BME280;21231;48.394;34.964;2023-07-20T07:02:54;99595.75;;;23.35;100.00
35045;BME280;21231;48.394;34.964;2023-07-20T07:05:40;99598.44;;;23.27;100.00
35045;BME280;21231;48.394;34.964;2023-07-20T07:08:27;99602.00;;;23.15;100.00
35045;BME280;21231;48.394;34.964;2023-07-20T07:11:13;99592.38;;;23.11;100.00
35045;BME280;21231;48.394;34.964;2023-07-20T07:13:59;99595.84;;;23.18;100.00
35045;BME280;21231;48.394;34.964;2023-07-20T07:16:45;99599.31;;;23.20;100.00
35045;BME280;21231;48.394;34.964;2023-07-20T07:19:32;99601.94;;;23.23;100.00
35045;BME280;21231;48.394;34.964;2023-07-20T07:22:18;99603.69;;;23.22;100.00
35045;BME280;21231;48.394;34.964;2023-07-20T07:25:04;99609.88;;;23.13;100.00
35045;BME280;21231;48.394;34.964;2023-07-20T07:27:51;99604.63;;;23.13;100.00
35045;BME280;21231;48.394;34.964;2023-07-20T07:30:37;99615.13;;;23.13;100.00
35045;BME280;21231;48.394;34.964;2023-07-20T07:33:24;99611.63;;;23.15;100.00
35045;BME280;21231;48.394;34.964;2023-07-20T07:36:11;99615.13;;;23.13;100.00
35045;BME280;21231;48.394;34.964;2023-07-20T07:38:57;99622.13;;;23.16;100.00
35045;BME280;21231;48.394;34.964;2023-07-20T07:41:47;99624.72;;;23.22;100.00
35045;BME280;21231;48.394;34.964;2023-07-20T07:44:33;99633.47;;;23.28;100.00
35045;BME280;21231;48.394;34.964;2023-07-20T07:47:19;99625.53;;;23.34;100.00
35045;BME280;21231;48.394;34.964;2023-07-20T07:50:05;99627.34;;;23.25;100.00
35045;BME280;21231;48.394;34.964;2023-07-20T07:52:51;99631.72;;;23.25;100.00
35045;BME280;21231;48.394;34.964;2023-07-20T07:55:37;99623.81;;;23.33;100.00
35045;BME280;21231;48.394;34.964;2023-07-20T07:58:24;99629.97;;;23.25;100.00
35045;BME280;21231;48.394;34.964;2023-07-20T08:01:12;99624.75;;;23.21;100.00
35045;BME280;21231;48.394;34.964;2023-07-20T08:03:58;99629.06;;;23.31;100.00
35045;BME280;21231;48.394;34.964;2023-07-20T08:06:44;99631.66;;;23.39;100.00
35045;BME280;21231;48.394;34.964;2023-07-20T08:09:30;99624.69;;;23.32;100.00
35045;BME280;21231;48.394;34.964;2023-07-20T08:12:16;99636.16;;;23.09;100.00
35045;BME280;21231;48.394;34.964;2023-07-20T08:15:05;99642.34;;;23.00;100.00
35045;BME280;21231;48.394;34.964;2023-07-20T08:17:52;99642.34;;;22.92;100.00
35045;BME280;21231;48.394;34.964;2023-07-20T08:20:38;99646.75;;;22.84;100.00
35045;BME280;21231;48.394;34.964;2023-07-20T08:23:24;99642.41;;;22.80;100.00
35045;BME280;21231;48.394;34.964;2023-07-20T08:26:10;99640.66;;;22.80;100.00
35045;BME280;21231;48.394;34.964;2023-07-20T08:28:57;99652.03;;;22.74;100.00
35045;BME280;21231;48.394;34.964;2023-07-20T08:31:43;99649.41;;;22.74;100.00
35045;BME280;21231;48.394;34.964;2023-07-20T08:34:30;99642.44;;;22.67;100.00
35045;BME280;21231;48.394;34.964;2023-07-20T08:37:17;99647.63;;;22.83;100.00
35045;BME280;21231;48.394;34.964;2023-07-20T08:40:03;99659.88;;;22.87;100.00
35045;BME280;21231;48.394;34.964;2023-07-20T08:42:55;99669.53;;;22.79;100.00
35045;BME280;21231;48.394;34.964;2023-07-20T08:45:44;99666.91;;;22.85;100.00
35045;BME280;21231;48.394;34.964;2023-07-20T08:48:31;99666.03;;;22.86;100.00
35045;BME280;21231;48.394;34.964;2023-07-20T08:51:18;99674.75;;;22.90;100.00
35045;BME280;21231;48.394;34.964;2023-07-20T08:54:06;99676.53;;;22.87;100.00
35045;BME280;21231;48.394;34.964;2023-07-20T08:56:54;99678.28;;;22.84;100.00
35045;BME280;21231;48.394;34.964;2023-07-20T08:59:43;99686.19;;;22.78;100.00
35045;BME280;21231;48.394;34.964;2023-07-20T09:02:31;99694.94;;;22.77;100.00
35045;BME280;21231;48.394;34.964;2023-07-20T09:05:23;99698.44;;;22.82;100.00
35045;BME280;21231;48.394;34.964;2023-07-20T09:08:11;99694.94;;;22.73;100.00
35045;BME280;21231;48.394;34.964;2023-07-20T09:10:57;99692.31;;;22.63;100.00
35045;BME280;21231;48.394;34.964;2023-07-20T09:13:44;99691.44;;;22.46;100.00
35045;BME280;21231;48.394;34.964;2023-07-20T09:16:30;99694.06;;;22.11;100.00
35045;BME280;21231;48.394;34.964;2023-07-20T09:19:17;99695.78;;;21.90;100.00
35045;BME280;21231;48.394;34.964;2023-07-20T09:22:05;99701.81;;;21.68;100.00
35045;BME280;21231;48.394;34.964;2023-07-20T09:24:52;99698.31;;;21.60;100.00
35045;BME280;21231;48.394;34.964;2023-07-20T09:27:39;99687.81;;;21.60;100.00
35045;BME280;21231;48.394;34.964;2023-07-20T09:30:25;99682.56;;;21.52;100.00
35045;BME280;21231;48.394;34.964;2023-07-20T09:33:19;99684.25;;;21.42;100.00
35045;BME280;21231;48.394;34.964;2023-07-20T09:36:10;99669.34;;;21.26;100.00
35045;BME280;21231;48.394;34.964;2023-07-20T09:39:20;99677.22;;;21.26;100.00
35045;BME280;21231;48.394;34.964;2023-07-20T09:42:11;99670.22;;;21.28;100.00
35045;BME280;21231;48.394;34.964;2023-07-20T09:45:00;99666.69;;;21.23;100.00
35045;BME280;21231;48.394;34.964;2023-07-20T09:47:46;99673.69;;;21.19;100.00
35045;BME280;21231;48.394;34.964;2023-07-20T09:50:53;99667.56;;;21.18;100.00
35045;BME280;21231;48.394;34.964;2023-07-20T09:53:40;99666.66;;;21.10;100.00
35045;BME280;21231;48.394;34.964;2023-07-20T09:56:26;99664.09;;;21.24;100.00
35045;BME280;21231;48.394;34.964;2023-07-20T09:59:14;99654.53;;;21.34;100.00
35045;BME280;21231;48.394;34.964;2023-07-20T10:02:02;99650.22;;;21.50;100.00
35045;BME280;21231;48.394;34.964;2023-07-20T10:04:53;99647.59;;;21.60;100.00
35045;BME280;21231;48.394;34.964;2023-07-20T10:07:50;99652.06;;;21.90;100.00
35045;BME280;21231;48.394;34.964;2023-07-20T10:10:59;99651.22;;;22.07;100.00
35045;BME280;21231;48.394;34.964;2023-07-20T10:13:49;99659.06;;;22.13;100.00
35045;BME280;21231;48.394;34.964;2023-07-20T10:16:39;99642.44;;;22.27;100.00
35045;BME280;21231;48.394;34.964;2023-07-20T10:19:42;99652.06;;;22.54;100.00
35045;BME280;21231;48.394;34.964;2023-07-20T10:22:36;99654.63;;;22.85;100.00
35045;BME280;21231;48.394;34.964;2023-07-20T10:25:28;99652.03;;;22.79;100.00
35045;BME280;21231;48.394;34.964;2023-07-20T10:28:14;99652.91;;;22.73;100.00
35045;BME280;21231;48.394;34.964;2023-07-20T10:31:01;99644.16;;;22.78;100.00
35045;BME280;21231;48.394;34.964;2023-07-20T10:33:47;99631.03;;;22.76;100.00
35045;BME280;21231;48.394;34.964;2023-07-20T10:36:44;99624.84;;;22.88;100.00
35045;BME280;21231;48.394;34.964;2023-07-20T10:39:39;99625.78;;;22.82;100.00
35045;BME280;21231;48.394;34.964;2023-07-20T10:42:33;99615.22;;;22.92;100.00
35045;BME280;21231;48.394;34.964;2023-07-20T10:45:19;99609.16;;;22.74;100.00
35045;BME280;21231;48.394;34.964;2023-07-20T10:48:13;99601.31;;;22.44;100.00
35045;BME280;21231;48.394;34.964;2023-07-20T10:51:14;99604.81;;;22.46;100.00
35045;BME280;21231;48.394;34.964;2023-07-20T10:57:29;99595.16;;;22.73;100.00
35045;BME280;21231;48.394;34.964;2023-07-20T11:00:19;99593.31;;;22.91;100.00
35045;BME280;21231;48.394;34.964;2023-07-20T11:03:05;99582.78;;;23.04;100.00
35045;BME280;21231;48.394;34.964;2023-07-20T11:05:51;99591.44;;;23.24;100.00
35045;BME280;21231;48.394;34.964;2023-07-20T11:08:39;99581.66;;;23.47;100.00
35045;BME280;21231;48.394;34.964;2023-07-20T11:11:35;99586.00;;;23.56;100.00
35045;BME280;21231;48.394;34.964;2023-07-20T11:14:23;99587.59;;;23.78;100.00
35045;BME280;21231;48.394;34.964;2023-07-20T11:17:15;99585.66;;;24.02;100.00
35045;BME280;21231;48.394;34.964;2023-07-20T11:20:04;99585.66;;;24.01;100.00
35045;BME280;21231;48.394;34.964;2023-07-20T11:22:54;99584.72;;;24.10;100.00
35045;BME280;21231;48.394;34.964;2023-07-20T11:25:40;99580.25;;;24.18;100.00
35045;BME280;21231;48.394;34.964;2023-07-20T11:28:30;99567.38;;;23.85;100.00
35045;BME280;21231;48.394;34.964;2023-07-20T11:31:16;99562.06;;;23.93;100.00
35045;BME280;21231;48.394;34.964;2023-07-20T11:34:02;99562.16;;;23.84;100.00
35045;BME280;21231;48.394;34.964;2023-07-20T11:36:52;99556.78;;;23.95;100.00
35045;BME280;21231;48.394;34.964;2023-07-20T11:39:41;99569.78;;;24.12;100.00
35045;BME280;21231;48.394;34.964;2023-07-20T11:42:28;99565.44;;;24.08;100.00
35045;BME280;21231;48.394;34.964;2023-07-20T11:45:19;99567.13;;;24.13;100.00
35045;BME280;21231;48.394;34.964;2023-07-20T11:48:05;99567.25;;;24.02;100.00
35045;BME280;21231;48.394;34.964;2023-07-20T11:50:52;99562.81;;;24.08;100.00
35045;BME280;21231;48.394;34.964;2023-07-20T11:53:38;99568.16;;;23.97;100.00
35045;BME280;21231;48.394;34.964;2023-07-20T11:56:24;99555.97;;;23.88;100.00
35045;BME280;21231;48.394;34.964;2023-07-20T11:59:11;99561.03;;;24.10;100.00
35045;BME280;21231;48.394;34.964;2023-07-20T12:02:01;99555.66;;;24.21;100.00
35045;BME280;21231;48.394;34.964;2023-07-20T12:04:49;99563.59;;;24.17;100.00
35045;BME280;21231;48.394;34.964;2023-07-20T12:07:36;99548.84;;;23.98;100.00
35045;BME280;21231;48.394;34.964;2023-07-20T12:10:25;99549.53;;;24.20;100.00
35045;BME280;21231;48.394;34.964;2023-07-20T12:13:12;99545.75;;;24.48;100.00
35045;BME280;21231;48.394;34.964;2023-07-20T12:16:06;99542.13;;;24.58;100.00
35045;BME280;21231;48.394;34.964;2023-07-20T12:19:19;99544.13;;;24.33;100.00
35045;BME280;21231;48.394;34.964;2023-07-20T12:22:05;99544.09;;;24.37;100.00
35045;BME280;21231;48.394;34.964;2023-07-20T12:24:52;99539.44;;;24.63;100.00
35045;BME280;21231;48.394;34.964;2023-07-20T12:27:39;99550.78;;;24.68;100.00
35045;BME280;21231;48.394;34.964;2023-07-20T12:30:26;99540.41;;;24.52;100.00
35045;BME280;21231;48.394;34.964;2023-07-20T12:33:12;99545.88;;;24.37;100.00
35045;BME280;21231;48.394;34.964;2023-07-20T12:36:02;99547.50;;;24.47;100.00
35045;BME280;21231;48.394;34.964;2023-07-20T12:38:49;99546.78;;;24.29;100.00
35045;BME280;21231;48.394;34.964;2023-07-20T12:41:35;99544.38;;;24.08;100.00
35045;BME280;21231;48.394;34.964;2023-07-20T12:44:21;99542.84;;;23.86;100.00
35045;BME280;21231;48.394;34.964;2023-07-20T12:47:07;99539.28;;;23.90;100.00
35045;BME280;21231;48.394;34.964;2023-07-20T12:49:53;99531.41;;;23.86;100.00
35045;BME280;21231;48.394;34.964;2023-07-20T12:52:40;99533.84;;;24.08;100.00
35045;BME280;21231;48.394;34.964;2023-07-20T12:55:26;99523.41;;;24.01;100.00
35045;BME280;21231;48.394;34.964;2023-07-20T12:58:13;99518.09;;;24.04;100.00
35045;BME280;21231;48.394;34.964;2023-07-20T13:00:59;99507.53;;;24.09;100.00
35045;BME280;21231;48.394;34.964;2023-07-20T13:03:46;99505.78;;;24.10;100.00
35045;BME280;21231;48.394;34.964;2023-07-20T13:06:35;99510.13;;;24.12;100.00
35045;BME280;21231;48.394;34.964;2023-07-20T13:09:22;99517.09;;;24.16;100.00
35045;BME280;21231;48.394;34.964;2023-07-20T13:12:09;99517.06;;;24.18;100.00
35045;BME280;21231;48.394;34.964;2023-07-20T13:14:56;99512.75;;;24.12;100.00
35045;BME280;21231;48.394;34.964;2023-07-20T13:17:43;99512.78;;;24.08;100.00
35045;BME280;21231;48.394;34.964;2023-07-20T13:20:29;99518.19;;;23.95;100.00
35045;BME280;21231;48.394;34.964;2023-07-20T13:23:16;99520.06;;;23.82;100.00
35045;BME280;21231;48.394;34.964;2023-07-20T13:26:02;99497.31;;;23.75;100.00
35045;BME280;21231;48.394;34.964;2023-07-20T13:28:49;99501.66;;;23.81;100.00
35045;BME280;21231;48.394;34.964;2023-07-20T13:31:35;99490.31;;;23.75;100.00
35045;BME280;21231;48.394;34.964;2023-07-20T13:34:21;99499.13;;;23.71;100.00
35045;BME280;21231;48.394;34.964;2023-07-20T13:37:08;99496.50;;;23.68;100.00
35045;BME280;21231;48.394;34.964;2023-07-20T13:39:58;99489.53;;;23.61;100.00
35045;BME280;21231;48.394;34.964;2023-07-20T13:42:44;99498.41;;;23.44;100.00
35045;BME280;21231;48.394;34.964;2023-07-20T13:45:31;99504.63;;;23.34;100.00
35045;BME280;21231;48.394;34.964;2023-07-20T13:48:17;99512.56;;;23.26;100.00
35045;BME280;21231;48.394;34.964;2023-07-20T13:51:09;99512.66;;;23.13;100.00
35045;BME280;21231;48.394;34.964;2023-07-20T13:53:56;99486.44;;;23.03;100.00
35045;BME280;21231;48.394;34.964;2023-07-20T13:56:43;99503.94;;;23.10;100.00
35045;BME280;21231;48.394;34.964;2023-07-20T13:59:29;99501.25;;;23.11;100.00
35045;BME280;21231;48.394;34.964;2023-07-20T14:02:15;99502.16;;;23.09;100.00
35045;BME280;21231;48.394;34.964;2023-07-20T14:05:05;99496.19;;;22.80;100.00
35045;BME280;21231;48.394;34.964;2023-07-20T14:07:54;99494.44;;;22.79;100.00
35045;BME280;21231;48.394;34.964;2023-07-20T14:10:41;99500.63;;;22.67;100.00
35045;BME280;21231;48.394;34.964;2023-07-20T14:13:30;99501.50;;;22.65;100.00
35045;BME280;21231;48.394;34.964;2023-07-20T14:16:32;99496.25;;;22.68;100.00
35045;BME280;21231;48.394;34.964;2023-07-20T14:19:18;99495.34;;;22.72;100.00
35045;BME280;21231;48.394;34.964;2023-07-20T14:22:05;99485.72;;;22.76;100.00
35045;BME280;21231;48.394;34.964;2023-07-20T14:24:51;99494.44;;;22.78;100.00
35045;BME280;21231;48.394;34.964;2023-07-20T14:27:37;99477.81;;;22.82;100.00
35045;BME280;21231;48.394;34.964;2023-07-20T14:30:23;99478.66;;;22.84;100.00
35045;BME280;21231;48.394;34.964;2023-07-20T14:33:09;99476.06;;;22.81;100.00
35045;BME280;21231;48.394;34.964;2023-07-20T14:35:55;99479.53;;;22.81;100.00
35045;BME280;21231;48.394;34.964;2023-07-20T14:38:42;99476.91;;;22.84;100.00